Time;durP1;ratioP1;P1;durP2;ratioP2;P2;SDS_P1;SDS_P2;PMS_P1;PMS_P2;Temp;Humidity;BMP_temperature;BMP_pressure;BME280_temperature;BME280_humidity;BME280_pressure;Samples;Min_cycle;Max_cycle;Signal;HPM_P1;HPM_P2
2024/01/21 00:00:44;;;;;;;7.60;2.75;;;-1.30;99.90;;;-1.97;100.00;102094.84;5226409;28;20407;-43
2024/01/21 00:03:16;;;;;;;4.50;3.00;;;-1.30;99.90;;;-2.01;100.00;102087.63;5235637;28;20048;-44
2024/01/21 00:05:50;;;;;;;6.50;2.63;;;-1.30;99.90;;;-1.99;100.00;102075.91;5240851;28;20397;-43
2024/01/21 00:08:23;;;;;;;7.63;3.13;;;-1.30;99.90;;;-1.97;100.00;102074.41;5225646;28;20049;-46
2024/01/21 00:10:55;;;;;;;9.30;3.67;;;-1.30;99.90;;;-1.97;100.00;102066.72;5241916;28;20072;-44
2024/01/21 00:13:28;;;;;;;4.93;2.60;;;-1.30;99.90;;;-1.99;100.00;102067.31;5256917;28;20087;-45
2024/01/21 00:16:00;;;;;;;7.28;2.58;;;-1.30;99.90;;;-2.01;100.00;102063.72;5240860;28;20124;-44
2024/01/21 00:18:33;;;;;;;5.18;2.83;;;-1.30;99.90;;;-2.05;100.00;102061.56;5256541;28;20056;-44
2024/01/21 00:21:06;;;;;;;3.42;2.25;;;-1.30;99.90;;;-2.06;100.00;102042.78;5247326;28;20050;-45
2024/01/21 00:23:39;;;;;;;10.00;4.03;;;-1.30;99.90;;;-2.07;100.00;102051.19;5234594;28;20446;-43
2024/01/21 00:26:12;;;;;;;10.60;4.93;;;-1.40;99.90;;;-2.05;100.00;102044.59;5246519;28;20053;-44
2024/01/21 00:28:44;;;;;;;5.78;2.78;;;-1.30;99.90;;;-2.08;100.00;102040.81;5236574;28;20052;-44
2024/01/21 00:31:17;;;;;;;9.77;2.83;;;-1.40;99.90;;;-2.08;100.00;102034.06;5234646;28;20148;-43
2024/01/21 00:33:49;;;;;;;5.25;2.88;;;-1.40;99.90;;;-2.07;100.00;102028.19;5231005;28;20048;-44
2024/01/21 00:36:23;;;;;;;6.10;3.45;;;-1.30;99.90;;;-2.08;100.00;102011.06;5231817;28;20522;-45
2024/01/21 00:38:55;;;;;;;6.95;3.13;;;-1.40;99.90;;;-2.10;100.00;102009.06;5240307;28;20053;-44
2024/01/21 00:41:28;;;;;;;10.32;4.03;;;-1.40;99.90;;;-2.08;100.00;102002.50;5230873;28;20044;-46
2024/01/21 00:44:01;;;;;;;8.07;3.40;;;-1.40;99.90;;;-2.09;100.00;102004.09;5231635;28;20060;-45
2024/01/21 00:46:33;;;;;;;7.72;2.92;;;-1.30;99.90;;;-2.08;100.00;101994.84;5242442;28;20527;-43
2024/01/21 00:49:06;;;;;;;10.85;4.82;;;-1.30;99.90;;;-2.08;100.00;101990.63;5233992;28;20049;-43
2024/01/21 00:51:40;;;;;;;7.53;4.05;;;-1.30;99.90;;;-2.06;100.00;101983.09;5224917;28;20045;-45
2024/01/21 00:54:15;;;;;;;8.52;3.97;;;-1.30;99.90;;;-2.03;100.00;101993.63;5234369;28;20053;-44
2024/01/21 00:56:48;;;;;;;7.53;4.30;;;-1.30;99.90;;;-2.01;100.00;101998.16;5243187;28;20118;-44
2024/01/21 00:59:20;;;;;;;8.02;4.25;;;-1.30;99.90;;;-1.97;100.00;101992.63;5240051;28;20044;-45
2024/01/21 01:01:52;;;;;;;7.15;3.78;;;-1.20;99.90;;;-1.93;100.00;101992.19;5236325;28;20079;-43
2024/01/21 01:04:25;;;;;;;5.88;2.90;;;-1.20;99.90;;;-1.87;100.00;101980.81;5237954;28;20053;-44
2024/01/21 01:06:59;;;;;;;6.25;2.88;;;-1.20;99.90;;;-1.86;100.00;101980.03;5232098;28;20049;-44
2024/01/21 01:09:31;;;;;;;4.63;2.95;;;-1.20;99.90;;;-1.82;100.00;101974.50;5256609;28;20102;-44
2024/01/21 01:12:04;;;;;;;4.88;2.83;;;-1.20;99.90;;;-1.80;100.00;101963.69;5236589;28;20045;-43
2024/01/21 01:14:39;;;;;;;12.88;3.35;;;-1.20;99.90;;;-1.79;100.00;101954.38;5243218;28;20052;-43
2024/01/21 01:17:12;;;;;;;12.02;5.28;;;-1.10;99.90;;;-1.78;100.00;101943.38;5243574;28;20052;-44
2024/01/21 01:19:44;;;;;;;11.23;4.40;;;-1.10;99.90;;;-1.77;100.00;101932.41;5243280;28;20051;-43
2024/01/21 01:22:18;;;;;;;6.97;3.65;;;-1.10;99.90;;;-1.80;100.00;101942.34;5235970;28;20045;-44
2024/01/21 01:24:50;;;;;;;10.63;3.53;;;-1.10;99.90;;;-1.80;100.00;101927.91;5237956;28;20041;-44
2024/01/21 01:27:24;;;;;;;6.40;2.50;;;-1.10;99.90;;;-1.83;100.00;101921.56;5243129;28;20427;-45
2024/01/21 01:29:57;;;;;;;10.77;4.45;;;-1.10;99.90;;;-1.85;100.00;101920.50;5254195;28;20075;-44
2024/01/21 01:32:29;;;;;;;8.40;4.25;;;-1.20;99.90;;;-1.88;100.00;101933.88;5232706;28;20041;-44
2024/01/21 01:35:02;;;;;;;4.57;3.00;;;-1.20;99.90;;;-1.86;100.00;101916.16;5236223;28;20048;-44
2024/01/21 01:37:36;;;;;;;8.75;4.00;;;-1.20;99.90;;;-1.83;100.00;101916.44;5232740;28;20160;-46
2024/01/21 01:40:09;;;;;;;4.88;2.70;;;-1.10;99.90;;;-1.80;100.00;101909.09;5228559;28;20044;-45
2024/01/21 01:42:41;;;;;;;9.05;4.15;;;-1.10;99.90;;;-1.80;100.00;101911.66;5247275;28;20064;-44
2024/01/21 01:45:14;;;;;;;7.15;3.88;;;-1.10;99.90;;;-1.79;100.00;101909.25;5233601;28;20071;-45
2024/01/21 01:47:46;;;;;;;15.00;4.95;;;-1.10;99.90;;;-1.78;100.00;101905.03;5247341;28;20045;-45
2024/01/21 01:50:22;;;;;;;11.98;4.45;;;-1.10;99.90;;;-1.76;100.00;101907.03;5234288;28;20061;-44
2024/01/21 01:52:57;;;;;;;7.47;3.80;;;-1.10;99.90;;;-1.75;100.00;101900.25;5224939;28;20033;-45
2024/01/21 01:55:29;;;;;;;10.95;4.10;;;-1.10;99.90;;;-1.70;100.00;101894.81;5233713;28;20048;-44
2024/01/21 01:58:03;;;;;;;10.95;5.03;;;-1.00;99.90;;;-1.66;100.00;101896.06;5237209;28;20067;-44
2024/01/21 02:00:39;;;;;;;6.80;3.63;;;-1.00;99.90;;;-1.64;100.00;101885.22;5242806;28;20056;-44
2024/01/21 02:03:12;;;;;;;12.05;4.93;;;-1.00;99.90;;;-1.63;100.00;101881.03;5236761;28;20045;-45
2024/01/21 02:05:45;;;;;;;7.97;3.17;;;-1.00;99.90;;;-1.67;100.00;101881.47;5226065;28;20076;-44
2024/01/21 02:08:19;;;;;;;12.73;3.10;;;-1.00;99.90;;;-1.64;100.00;101881.75;5248233;28;20585;-44
2024/01/21 02:10:52;;;;;;;17.85;5.05;;;-1.00;99.90;;;-1.56;100.00;101887.66;5242576;28;20044;-43
2024/01/21 02:13:24;;;;;;;8.73;3.72;;;-0.90;99.90;;;-1.55;100.00;101877.59;5236638;28;20033;-43
2024/01/21 02:15:58;;;;;;;15.68;2.80;;;-1.00;99.90;;;-1.52;100.00;101877.88;5228288;28;20053;-46
2024/01/21 02:18:32;;;;;;;8.98;2.25;;;-0.90;99.90;;;-1.48;100.00;101887.69;5247317;28;20060;-43
2024/01/21 02:21:05;;;;;;;7.93;2.20;;;-0.90;99.90;;;-1.41;100.00;101878.97;5226898;28;20048;-43
2024/01/21 02:23:39;;;;;;;9.18;3.15;;;-0.80;99.90;;;-1.40;100.00;101871.44;5242593;28;20045;-43
2024/01/21 02:26:11;;;;;;;11.80;3.25;;;-0.80;99.90;;;-1.34;100.00;101870.25;5238736;28;20723;-43
2024/01/21 02:28:43;;;;;;;5.70;2.80;;;-0.80;99.90;;;-1.32;100.00;101868.72;5230539;28;20060;-43
2024/01/21 02:31:16;;;;;;;6.63;3.10;;;-0.70;99.90;;;-1.30;100.00;101864.69;5231701;28;20057;-44
2024/01/21 02:33:48;;;;;;;4.25;2.45;;;-0.70;99.90;;;-1.31;100.00;101863.75;5256246;28;20537;-46
2024/01/21 02:36:23;;;;;;;2.92;2.25;;;-0.70;99.90;;;-1.31;100.00;101857.72;5234606;28;20075;-44
2024/01/21 02:38:57;;;;;;;8.07;3.13;;;-0.70;99.90;;;-1.30;100.00;101857.91;5233037;28;20397;-43
2024/01/21 02:41:29;;;;;;;8.07;2.22;;;-0.70;99.90;;;-1.28;100.00;101858.94;5250549;28;20045;-44
2024/01/21 02:44:02;;;;;;;5.10;2.97;;;-0.60;99.90;;;-1.25;100.00;101856.69;5241601;28;20431;-45
2024/01/21 02:46:37;;;;;;;9.23;2.85;;;-0.70;99.90;;;-1.22;100.00;101862.13;5228406;28;20048;-43
2024/01/21 02:49:10;;;;;;;7.70;3.70;;;-0.70;99.90;;;-1.25;100.00;101845.53;5247665;28;20053;-44
2024/01/21 02:51:42;;;;;;;7.90;3.92;;;-0.60;99.90;;;-1.25;100.00;101841.31;5238325;28;20049;-44
2024/01/21 02:54:16;;;;;;;4.47;2.78;;;-0.60;99.90;;;-1.24;100.00;101848.28;5231641;28;20381;-43
2024/01/21 02:56:48;;;;;;;4.38;2.78;;;-0.60;99.90;;;-1.24;100.00;101839.66;5225831;28;20583;-43
2024/01/21 02:59:21;;;;;;;3.35;2.25;;;-0.60;99.90;;;-1.23;100.00;101850.09;5251977;28;20048;-43
2024/01/21 03:01:53;;;;;;;9.18;3.83;;;-0.60;99.90;;;-1.21;100.00;101853.69;5242424;28;20052;-44
2024/01/21 03:04:28;;;;;;;4.72;3.70;;;-0.60;99.90;;;-1.19;100.00;101851.25;5233704;28;20447;-45
2024/01/21 03:07:01;;;;;;;;;;;-0.60;99.90;;;-1.19;100.00;101846.16;5226002;28;20052;-43
2024/01/21 03:09:34;;;;;;;8.93;3.15;;;-0.60;99.90;;;-1.20;100.00;101845.25;5237952;28;19928;-44
2024/01/21 03:12:08;;;;;;;7.35;2.50;;;-0.60;99.90;;;-1.21;100.00;101840.00;5241789;28;20044;-44
2024/01/21 03:14:40;;;;;;;5.65;2.88;;;-0.60;99.90;;;-1.25;100.00;101830.19;5262315;28;20090;-44
2024/01/21 03:17:13;;;;;;;11.68;3.80;;;-0.70;99.90;;;-1.26;100.00;101825.84;5249608;28;20056;-45
2024/01/21 03:19:45;;;;;;;9.57;3.42;;;-0.70;99.90;;;-1.26;100.00;101828.41;5241949;28;20056;-44
2024/01/21 03:22:18;;;;;;;9.30;3.22;;;-0.70;99.90;;;-1.30;100.00;101831.44;5241685;28;20534;-44
2024/01/21 03:24:55;;;;;;;8.82;3.55;;;-0.70;99.90;;;-1.34;100.00;101829.31;5250149;28;20427;-44
2024/01/21 03:27:27;;;;;;;5.47;1.95;;;-0.70;99.90;;;-1.33;100.00;101831.09;5252384;28;20045;-43
2024/01/21 03:30:00;;;;;;;4.72;3.13;;;-0.80;99.90;;;-1.40;100.00;101825.38;5245720;28;20097;-44
2024/01/21 03:32:32;;;;;;;5.63;2.22;;;-0.80;99.90;;;-1.39;100.00;101821.16;5245717;28;20503;-43
2024/01/21 03:35:05;;;;;;;7.43;2.75;;;-0.80;99.90;;;-1.41;100.00;101815.91;5237541;28;20460;-44
2024/01/21 03:37:38;;;;;;;8.32;3.40;;;-0.80;99.90;;;-1.45;100.00;101810.34;5245229;28;20051;-46
2024/01/21 03:40:12;;;;;;;4.63;2.70;;;-0.80;99.90;;;-1.45;100.00;101815.44;5241586;28;20057;-44
2024/01/21 03:42:47;;;;;;;4.55;2.63;;;-0.80;99.90;;;-1.47;100.00;101807.63;5232970;28;20044;-43
2024/01/21 03:45:19;;;;;;;6.28;2.55;;;-0.80;99.90;;;-1.46;100.00;101801.75;5252693;28;20240;-44
2024/01/21 03:47:52;;;;;;;5.43;2.88;;;-0.80;99.90;;;-1.49;100.00;101810.81;5237992;28;20405;-46
2024/01/21 03:50:24;;;;;;;9.30;3.60;;;-0.80;99.90;;;-1.55;100.00;101793.19;5224699;28;20052;-44
2024/01/21 03:52:57;;;;;;;3.70;2.75;;;-0.80;99.90;;;-1.56;100.00;101793.94;5235756;28;20055;-44
2024/01/21 03:55:30;;;;;;;4.80;2.63;;;-0.90;99.90;;;-1.58;100.00;101791.97;5245187;28;20419;-45
2024/01/21 03:58:03;;;;;;;9.90;2.67;;;-0.90;99.90;;;-1.58;100.00;101787.75;5241294;28;20048;-43
2024/01/21 04:00:35;;;;;;;8.13;3.42;;;-0.90;99.90;;;-1.59;100.00;101785.97;5240630;28;20382;-44
2024/01/21 04:03:07;;;;;;;10.30;3.60;;;-0.90;99.90;;;-1.57;100.00;101779.34;5224259;28;20091;-44
2024/01/21 04:05:40;;;;;;;5.65;2.97;;;-0.90;99.90;;;-1.55;100.00;101789.75;5244829;28;20067;-45
2024/01/21 04:08:12;;;;;;;3.47;2.03;;;-0.90;99.90;;;-1.58;100.00;101791.97;5228196;28;20060;-44
2024/01/21 04:10:47;;;;;;;12.32;3.50;;;-0.90;99.90;;;-1.56;100.00;101800.72;5232934;28;20060;-45
2024/01/21 04:13:19;;;;;;;3.88;2.38;;;-0.90;99.90;;;-1.53;100.00;101801.00;5240536;28;20049;-44
2024/01/21 04:15:52;;;;;;;9.48;2.85;;;-0.90;99.90;;;-1.57;100.00;101794.69;5224176;28;20431;-44
2024/01/21 04:18:24;;;;;;;4.88;2.03;;;-0.90;99.90;;;-1.54;100.00;101796.66;5238402;28;20454;-45
2024/01/21 04:21:00;;;;;;;7.25;3.05;;;-0.90;99.90;;;-1.55;100.00;101788.09;5224353;28;20573;-46
2024/01/21 04:23:32;;;;;;;3.72;2.42;;;-0.90;99.90;;;-1.60;100.00;101780.69;5230451;28;20137;-45
2024/01/21 04:26:07;;;;;;;5.85;2.67;;;-0.90;99.90;;;-1.61;100.00;101772.13;5256442;28;20541;-45
2024/01/21 04:28:39;;;;;;;5.07;2.75;;;-0.90;99.90;;;-1.60;100.00;101779.03;5240657;28;20076;-44
2024/01/21 04:31:11;;;;;;;3.75;2.05;;;-0.90;99.90;;;-1.60;100.00;101773.94;5235638;28;20049;-44
2024/01/21 04:33:44;;;;;;;6.35;3.80;;;-1.00;99.90;;;-1.60;100.00;101776.50;5223764;28;20630;-44
2024/01/21 04:36:18;;;;;;;6.60;3.10;;;-0.90;99.90;;;-1.64;100.00;101767.59;5238788;28;20107;-45
2024/01/21 04:38:50;;;;;;;6.15;2.38;;;-0.90;99.90;;;-1.64;100.00;101766.69;5250500;28;20114;-45
2024/01/21 04:41:24;;;;;;;5.85;2.10;;;-1.00;99.90;;;-1.67;100.00;101766.41;5231283;28;20052;-44
2024/01/21 04:43:57;;;;;;;6.32;2.25;;;-1.00;99.90;;;-1.68;100.00;101764.63;5229856;28;20067;-44
2024/01/21 04:46:29;;;;;;;10.63;4.60;;;-1.00;99.90;;;-1.64;100.00;101766.69;5240393;28;20415;-44
2024/01/21 04:49:02;;;;;;;8.40;3.10;;;-1.00;99.90;;;-1.71;100.00;101774.53;5240368;28;20045;-44
2024/01/21 04:51:34;;;;;;;5.35;2.78;;;-1.00;99.90;;;-1.70;100.00;101763.53;5251378;28;20056;-44
2024/01/21 04:54:07;;;;;;;5.97;3.20;;;-1.00;99.90;;;-1.69;100.00;101760.25;5231348;28;20048;-44
2024/01/21 04:56:40;;;;;;;3.70;2.88;;;-1.00;99.90;;;-1.72;100.00;101759.94;5239833;28;20067;-45
2024/01/21 04:59:13;;;;;;;6.20;3.08;;;-1.00;99.90;;;-1.77;100.00;101743.22;5231726;28;20131;-44
2024/01/21 05:01:49;;;;;;;5.57;2.72;;;-1.00;99.90;;;-1.79;100.00;101734.53;5240397;28;20787;-44
2024/01/21 05:04:22;;;;;;;8.27;2.85;;;-1.10;99.90;;;-1.81;100.00;101736.03;5227824;28;20049;-43
2024/01/21 05:06:54;;;;;;;5.78;3.33;;;-1.10;99.90;;;-1.78;100.00;101728.66;5223402;28;20048;-45
2024/01/21 05:09:26;;;;;;;7.53;3.92;;;-1.10;99.90;;;-1.81;100.00;101726.72;5241501;28;20052;-44
2024/01/21 05:12:00;;;;;;;4.95;2.75;;;-1.10;99.90;;;-1.80;100.00;101714.84;5239806;28;20056;-45
2024/01/21 05:14:33;;;;;;;6.20;2.00;;;-1.10;99.90;;;-1.78;100.00;101715.88;5237572;28;20471;-46
2024/01/21 05:17:06;;;;;;;6.68;3.03;;;-1.10;99.90;;;-1.79;100.00;101698.75;5239148;28;20122;-44
2024/01/21 05:19:38;;;;;;;6.05;3.15;;;-1.10;99.90;;;-1.79;100.00;101684.31;5230684;28;20416;-45
2024/01/21 05:22:11;;;;;;;9.90;3.85;;;-1.10;99.90;;;-1.78;100.00;101685.19;5239283;28;20547;-45
2024/01/21 05:24:43;;;;;;;7.60;3.20;;;-1.10;99.90;;;-1.78;100.00;101672.41;5242779;28;20040;-43
2024/01/21 05:27:17;;;;;;;8.80;3.22;;;-1.10;99.90;;;-1.79;100.00;101665.50;5235911;28;20045;-45
2024/01/21 05:29:49;;;;;;;2.78;1.42;;;-1.10;99.90;;;-1.74;100.00;101675.44;5232588;28;20044;-45
2024/01/21 05:32:22;;;;;;;8.32;2.47;;;-1.10;99.90;;;-1.70;100.00;101669.84;5243482;28;20423;-45
2024/01/21 05:34:54;;;;;;;3.45;1.80;;;-1.00;99.90;;;-1.67;100.00;101670.16;5229209;28;20526;-45
2024/01/21 05:37:26;;;;;;;6.72;2.42;;;-1.00;99.90;;;-1.61;100.00;101679.19;5241295;28;20139;-43
2024/01/21 05:39:59;;;;;;;4.93;2.53;;;-1.00;99.90;;;-1.54;100.00;101676.47;5238238;28;20045;-45
2024/01/21 05:42:32;;;;;;;3.28;2.58;;;-0.90;99.90;;;-1.56;100.00;101689.09;5238987;28;20163;-43
2024/01/21 05:45:06;;;;;;;5.18;2.42;;;-1.00;99.90;;;-1.56;100.00;101684.00;5242864;28;20052;-45
2024/01/21 05:47:39;;;;;;;3.20;1.77;;;-0.90;99.90;;;-1.58;100.00;101682.03;5243360;28;20590;-45
2024/01/21 05:50:11;;;;;;;3.55;1.77;;;-1.00;99.90;;;-1.58;100.00;101680.38;5239309;28;20382;-44
2024/01/21 05:52:44;;;;;;;8.48;2.67;;;-0.90;99.90;;;-1.55;100.00;101685.78;5234917;28;20056;-43
2024/01/21 05:55:16;;;;;;;8.43;2.83;;;-0.90;99.90;;;-1.58;100.00;101670.13;5234010;28;20045;-44
2024/01/21 05:57:50;;;;;;;5.68;2.90;;;-0.90;99.90;;;-1.58;100.00;101664.13;5236633;28;20072;-44
2024/01/21 06:00:23;;;;;;;9.55;3.42;;;-1.00;99.90;;;-1.60;100.00;101661.44;5243622;28;20052;-45
2024/01/21 06:02:55;;;;;;;8.48;4.13;;;-1.00;99.90;;;-1.64;100.00;101665.31;5230566;28;20435;-44
2024/01/21 06:05:27;;;;;;;7.32;2.78;;;-1.00;99.90;;;-1.61;100.00;101674.97;5234057;28;20504;-43
2024/01/21 06:08:00;;;;;;;5.88;3.53;;;-1.00;99.90;;;-1.60;100.00;101697.22;5239975;28;20041;-44
2024/01/21 06:10:32;;;;;;;6.38;3.25;;;-1.00;99.90;;;-1.55;100.00;101702.78;5241178;28;20048;-44
2024/01/21 06:13:07;;;;;;;8.98;4.28;;;-1.00;99.90;;;-1.51;100.00;101698.09;5237464;28;20048;-45
2024/01/21 06:15:39;;;;;;;3.40;1.95;;;-0.90;99.90;;;-1.50;100.00;101710.16;5233410;28;20060;-45
2024/01/21 06:18:11;;;;;;;5.47;2.42;;;-0.90;99.90;;;-1.50;100.00;101699.94;5228398;28;20059;-45
2024/01/21 06:20:44;;;;;;;4.20;2.28;;;-0.90;99.90;;;-1.57;100.00;101694.94;5224575;28;20053;-47
2024/01/21 06:23:16;;;;;;;3.25;2.35;;;-0.90;99.90;;;-1.58;100.00;101684.56;5231021;28;20062;-45
2024/01/21 06:25:49;;;;;;;3.47;2.10;;;-0.90;99.90;;;-1.58;100.00;101684.56;5238440;28;20056;-43
2024/01/21 06:28:22;;;;;;;2.65;2.17;;;-0.90;99.90;;;-1.60;100.00;101684.44;5230698;28;20143;-45
2024/01/21 06:30:58;;;;;;;8.98;2.78;;;-1.00;99.90;;;-1.61;100.00;101689.41;5234934;28;20449;-45
2024/01/21 06:33:31;;;;;;;;;;;-1.00;99.90;;;-1.61;100.00;101680.09;5246871;28;20041;-45
2024/01/21 06:36:04;;;;;;;10.20;2.42;;;-0.90;99.90;;;-1.60;100.00;101687.00;5240829;28;20011;-44
2024/01/21 06:38:37;;;;;;;6.15;1.83;;;-0.90;99.90;;;-1.59;100.00;101688.78;5239515;28;20052;-44
2024/01/21 06:41:10;;;;;;;5.68;3.22;;;-0.90;99.90;;;-1.56;100.00;101701.91;5238042;28;20106;-44
2024/01/21 06:43:44;;;;;;;2.78;2.00;;;-0.90;99.90;;;-1.54;100.00;101702.94;5228998;28;20051;-45
2024/01/21 06:46:18;;;;;;;5.32;2.60;;;-0.90;99.90;;;-1.50;100.00;101693.88;5231989;28;20056;-45
2024/01/21 06:48:50;;;;;;;8.38;2.78;;;-0.90;99.90;;;-1.49;100.00;101686.38;5242934;28;20041;-45
2024/01/21 06:51:31;;;;;;;7.45;2.42;;;-0.80;99.90;;;-1.46;100.00;101691.78;5247505;28;20056;-45
2024/01/21 06:54:04;;;;;;;4.45;2.10;;;-0.80;99.90;;;-1.45;100.00;101682.44;5239282;28;20052;-45
2024/01/21 06:56:36;;;;;;;4.78;2.63;;;-0.80;99.90;;;-1.45;100.00;101668.00;5229622;28;20044;-44
2024/01/21 06:59:10;;;;;;;3.22;2.55;;;-0.80;99.90;;;-1.47;100.00;101658.41;5246415;28;20044;-44
2024/01/21 07:01:42;;;;;;;1.73;1.63;;;-0.80;99.90;;;-1.48;100.00;101660.06;5240463;28;20052;-44
2024/01/21 07:04:15;;;;;;;4.15;2.63;;;-0.80;99.90;;;-1.49;100.00;101665.94;5232606;28;20087;-44
2024/01/21 07:06:47;;;;;;;2.13;1.77;;;-0.80;99.90;;;-1.45;100.00;101662.88;5233693;28;20059;-45
2024/01/21 07:09:20;;;;;;;5.63;2.95;;;-0.80;99.90;;;-1.39;100.00;101652.34;5248938;28;20564;-46
2024/01/21 07:11:52;;;;;;;8.13;3.30;;;-0.80;99.90;;;-1.32;100.00;101644.50;5233534;28;20053;-45
2024/01/21 07:14:26;;;;;;;3.90;2.90;;;-0.70;99.90;;;-1.26;100.00;101650.22;5235177;28;20045;-44
2024/01/21 07:16:59;;;;;;;8.07;2.55;;;-0.60;99.90;;;-1.20;100.00;101652.44;5244010;28;20052;-44
2024/01/21 07:19:31;;;;;;;6.53;2.28;;;-0.60;99.90;;;-1.10;100.00;101662.81;5243165;28;20107;-44
2024/01/21 07:22:04;;;;;;;5.32;3.13;;;-0.60;99.90;;;-1.03;100.00;101664.28;5238299;28;20036;-44
2024/01/21 07:24:36;;;;;;;3.95;2.25;;;-0.50;99.90;;;-0.98;100.00;101661.41;5245825;28;20144;-45
2024/01/21 07:27:09;;;;;;;3.55;1.75;;;-0.50;99.90;;;-0.94;100.00;101665.16;5234136;28;20408;-43
2024/01/21 07:29:43;;;;;;;5.80;2.97;;;-0.40;99.90;;;-0.90;100.00;101669.81;5237930;28;20060;-43
2024/01/21 07:32:15;;;;;;;3.90;2.33;;;-0.40;99.90;;;-0.85;100.00;101671.13;5227970;28;20052;-44
2024/01/21 07:34:47;;;;;;;4.18;2.05;;;-0.30;99.90;;;-0.85;100.00;101666.94;5233076;28;20049;-43
2024/01/21 07:37:20;;;;;;;5.70;3.30;;;-0.30;99.90;;;-0.82;100.00;101680.00;5253385;28;20503;-46
2024/01/21 07:39:52;;;;;;;2.75;1.88;;;-0.30;99.90;;;-0.79;100.00;101693.84;5245640;28;20056;-44
2024/01/21 07:42:24;;;;;;;5.47;1.45;;;-0.20;99.90;;;-0.75;100.00;101699.41;5251543;28;20137;-43
2024/01/21 07:44:58;;;;;;;4.57;2.25;;;-0.20;99.90;;;-0.72;100.00;101704.78;5249914;28;20045;-44
2024/01/21 07:47:31;;;;;;;4.70;2.70;;;-0.20;99.90;;;-0.68;100.00;101744.41;5244264;28;20053;-44
2024/01/21 07:50:04;;;;;;;3.50;2.13;;;-0.10;99.90;;;-0.62;100.00;101768.03;5257020;28;20056;-45
2024/01/21 07:52:37;;;;;;;3.58;1.98;;;-0.10;99.90;;;0.52;100.00;101770.03;5253787;28;20052;-44
2024/01/21 07:55:13;;;;;;;3.80;2.85;;;0.70;99.90;;;0.46;100.00;101787.47;5250872;28;20492;-45
2024/01/21 07:57:46;;;;;;;6.22;2.83;;;0.80;99.90;;;0.36;100.00;101813.03;5234111;28;20056;-43
2024/01/21 08:00:20;;;;;;;4.78;2.38;;;0.90;99.90;;;0.23;100.00;101796.53;5244963;28;20059;-44
2024/01/21 08:02:52;;;;;;;3.50;1.92;;;0.80;99.90;;;0.09;100.00;101806.28;5236677;28;20071;-44
2024/01/21 08:05:25;;;;;;;9.60;3.75;;;0.70;99.90;;;0.02;100.00;101804.81;5253668;28;20048;-43
2024/01/21 08:07:57;;;;;;;6.32;2.80;;;0.60;99.90;;;-0.06;100.00;101798.09;5247243;28;20049;-44
2024/01/21 08:10:29;;;;;;;6.95;3.20;;;0.50;99.90;;;-0.12;100.00;101792.38;5240766;28;20430;-43
2024/01/21 08:13:05;;;;;;;7.18;2.28;;;0.50;99.90;;;-0.16;100.00;101790.28;5245788;28;20441;-43
2024/01/21 08:15:39;;;;;;;3.15;2.00;;;0.40;99.90;;;-0.20;100.00;101783.97;5240974;28;20045;-43
2024/01/21 08:18:12;;;;;;;6.10;2.80;;;0.40;99.90;;;-0.24;100.00;101786.13;5245675;28;20055;-45
2024/01/21 08:20:45;;;;;;;10.77;3.13;;;0.30;99.90;;;-0.32;100.00;101776.06;5245863;28;20653;-45
2024/01/21 08:23:19;;;;;;;7.63;3.05;;;0.30;99.90;;;-0.36;100.00;101784.19;5249726;28;20048;-44
2024/01/21 08:25:51;;;;;;;3.08;2.58;;;0.30;99.90;;;-0.38;100.00;101785.72;5243488;28;20049;-43
2024/01/21 08:28:23;;;;;;;8.63;3.38;;;0.20;99.90;;;-0.33;100.00;101792.19;5253565;28;20548;-45
2024/01/21 08:30:57;;;;;;;5.78;2.33;;;0.30;99.90;;;-0.25;100.00;101792.00;5252436;28;20427;-44
2024/01/21 08:33:30;;;;;;;8.13;3.22;;;0.30;99.90;;;-0.18;100.00;101787.59;5239321;28;20082;-43
2024/01/21 08:36:03;;;;;;;5.00;2.35;;;0.30;99.90;;;-0.19;100.00;101777.19;5257676;28;20049;-43
2024/01/21 08:38:36;;;;;;;5.28;2.53;;;0.40;99.90;;;-0.15;100.00;101774.16;5246329;28;20053;-43
2024/01/21 08:41:11;;;;;;;2.45;1.58;;;0.40;99.90;;;-0.02;100.00;101761.69;5244508;28;20389;-43
2024/01/21 08:43:43;;;;;;;7.15;2.88;;;0.50;99.90;;;0.00;100.00;101744.81;5229916;28;20504;-44
2024/01/21 08:46:18;;;;;;;6.30;2.88;;;0.50;99.90;;;0.03;100.00;101723.69;5241949;28;20048;-43
2024/01/21 08:48:50;;;;;;;3.65;2.20;;;0.50;99.90;;;0.07;100.00;101721.53;5246562;28;20578;-44
2024/01/21 08:51:23;;;;;;;6.97;3.40;;;0.60;99.90;;;0.09;100.00;101722.56;5227409;28;20049;-44
2024/01/21 08:53:56;;;;;;;12.88;3.50;;;0.60;99.90;;;0.11;100.00;101713.34;5236782;28;20056;-44
2024/01/21 08:56:28;;;;;;;5.13;2.33;;;0.60;99.90;;;0.12;100.00;101689.50;5242027;28;20041;-43
2024/01/21 08:59:01;;;;;;;5.78;2.83;;;0.60;99.90;;;0.17;100.00;101690.81;5245942;28;20041;-45
2024/01/21 09:01:34;;;;;;;4.28;1.77;;;0.70;99.90;;;0.17;100.00;101683.13;5242388;28;20057;-43
2024/01/21 09:04:07;;;;;;;9.77;3.17;;;0.70;99.90;;;0.20;100.00;101687.66;5249096;28;20511;-43
2024/01/21 09:06:41;;;;;;;9.45;2.92;;;0.70;99.90;;;0.21;100.00;101695.47;5248952;28;20045;-44
2024/01/21 09:09:17;;;;;;;4.88;2.92;;;0.70;99.90;;;0.29;100.00;101733.75;5243243;28;20459;-43
2024/01/21 09:11:50;;;;;;;;;;;0.80;99.90;;;0.38;100.00;101773.94;5251645;28;20529;-43
2024/01/21 09:14:23;;;;;;;5.57;2.38;;;0.80;99.90;;;0.46;100.00;101790.94;5242979;28;19921;-43
2024/01/21 09:16:56;;;;;;;6.47;3.30;;;0.90;99.90;;;0.55;100.00;101775.47;5253768;28;20045;-43
2024/01/21 09:19:32;;;;;;;10.93;3.47;;;1.00;99.90;;;0.66;100.00;101787.63;5244405;28;20040;-43
2024/01/21 09:22:05;;;;;;;5.38;2.47;;;1.00;99.90;;;0.70;100.00;101784.53;5232867;28;20515;-44
2024/01/21 09:24:37;;;;;;;12.10;3.13;;;1.10;99.90;;;0.78;100.00;101774.94;5244296;28;20427;-44
2024/01/21 09:27:13;;;;;;;3.67;2.65;;;1.20;99.90;;;0.95;99.72;101789.28;5245417;28;20093;-43
2024/01/21 09:29:45;;;;;;;4.72;2.42;;;1.30;99.90;;;1.07;99.34;101791.28;5237030;28;20056;-44
2024/01/21 09:32:19;;;;;;;4.65;2.50;;;1.40;99.90;;;1.21;99.05;101795.06;5244326;28;20060;-45
2024/01/21 09:34:51;;;;;;;4.15;2.17;;;1.50;99.90;;;1.32;97.97;101796.91;5237720;28;20052;-44
2024/01/21 09:37:24;;;;;;;8.32;3.05;;;1.60;99.90;;;1.49;97.39;101808.63;5252426;28;20056;-43
2024/01/21 09:39:56;;;;;;;5.88;2.92;;;1.80;99.90;;;1.52;95.50;101826.00;5235804;28;20079;-43
2024/01/21 09:42:29;;;;;;;8.27;3.33;;;1.80;99.90;;;1.56;96.26;101841.81;5250752;28;20055;-45
2024/01/21 09:45:02;;;;;;;6.93;3.63;;;1.90;99.90;;;1.63;96.29;101845.84;5239446;28;20056;-44
2024/01/21 09:47:38;;;;;;;4.28;2.03;;;1.90;99.90;;;1.53;94.85;101817.53;5235291;28;20056;-46
2024/01/21 09:50:12;;;;;;;9.18;3.72;;;1.90;99.90;;;1.51;95.66;101807.13;5236203;28;20151;-43
2024/01/21 09:52:44;;;;;;;6.20;3.65;;;1.90;99.90;;;1.51;95.93;101811.38;5227348;28;20067;-42
2024/01/21 09:55:16;;;;;;;7.72;2.83;;;1.90;99.90;;;1.51;95.65;101806.22;5240307;28;20045;-43
2024/01/21 09:57:49;;;;;;;5.72;2.58;;;1.90;99.90;;;1.50;96.18;101788.97;5242032;28;20468;-44
2024/01/21 10:00:22;;;;;;;6.20;3.38;;;1.90;99.90;;;1.52;96.13;101783.22;5240126;28;20063;-44
2024/01/21 10:02:55;;;;;;;8.05;3.20;;;1.90;99.90;;;1.63;96.69;101789.31;5250580;28;20097;-45
2024/01/21 10:05:28;;;;;;;5.05;3.30;;;2.00;99.90;;;1.75;96.23;101790.31;5243276;28;20516;-44
2024/01/21 10:08:00;;;;;;;7.35;2.83;;;2.10;99.90;;;1.86;95.22;101792.16;5248416;28;20056;-43
2024/01/21 10:10:32;;;;;;;6.57;3.13;;;2.10;99.90;;;1.92;95.71;101785.75;5251132;28;20049;-44
2024/01/21 10:13:05;;;;;;;8.32;3.72;;;2.20;99.90;;;1.92;95.35;101796.03;5246952;28;20072;-43
2024/01/21 10:15:37;;;;;;;5.47;2.20;;;2.20;99.90;;;1.91;95.23;101779.69;5243248;28;20041;-44
2024/01/21 10:18:11;;;;;;;7.13;2.92;;;2.20;99.90;;;1.97;94.96;101769.03;5231496;28;20044;-44
2024/01/21 10:20:44;;;;;;;5.03;2.15;;;2.30;99.90;;;2.11;94.94;101783.94;5249067;28;20070;-44
2024/01/21 10:23:16;;;;;;;6.88;2.50;;;2.40;99.90;;;2.13;93.99;101779.81;5244418;28;20056;-43
2024/01/21 10:25:48;;;;;;;8.07;3.00;;;2.40;99.90;;;2.17;94.11;101785.38;5244812;28;20045;-43
2024/01/21 10:28:22;;;;;;;7.65;3.00;;;2.50;99.90;;;2.19;94.37;101788.06;5239704;28;20087;-44
2024/01/21 10:30:54;;;;;;;5.28;2.60;;;2.50;99.90;;;2.21;94.52;101781.34;5238986;28;20052;-43
2024/01/21 10:33:28;;;;;;;3.88;2.30;;;2.50;99.90;;;2.29;94.24;101785.50;5246934;28;20051;-44